createdAt,value
2018-08-09T00:00:32.869Z,22.73
2018-08-09T00:01:33.208Z,22.75
2018-08-09T00:02:33.293Z,22.72
2018-08-09T00:03:33.344Z,22.93
2018-08-09T00:04:33.528Z,22.90
2018-08-09T00:05:33.703Z,22.76
2018-08-09T00:06:33.878Z,22.87
2018-08-09T00:07:34.053Z,22.85
2018-08-09T00:08:34.230Z,22.93
2018-08-09T00:09:34.410Z,22.90
2018-08-09T00:10:34.588Z,22.83
2018-08-09T00:11:34.768Z,22.75
2018-08-09T00:12:34.953Z,22.73
2018-08-09T00:13:35.126Z,22.70
2018-08-09T00:14:35.314Z,22.63
2018-08-09T00:15:35.490Z,22.73
2018-08-09T00:16:35.668Z,22.65
2018-08-09T00:17:35.855Z,22.69
2018-08-09T00:18:36.030Z,22.78
2018-08-09T00:19:36.207Z,22.72
2018-08-09T00:20:36.376Z,22.62
2018-08-09T00:21:36.560Z,22.65
2018-08-09T00:22:36.746Z,22.54
2018-08-09T00:23:36.918Z,22.57
2018-08-09T00:24:37.096Z,22.62
2018-08-09T00:25:37.282Z,22.57
2018-08-09T00:26:37.462Z,22.47
2018-08-09T00:27:37.640Z,22.39
2018-08-09T00:28:37.818Z,22.43
2018-08-09T00:29:38.011Z,22.48
2018-08-09T00:30:38.187Z,22.41
2018-08-09T00:31:38.375Z,22.51
2018-08-09T00:32:38.548Z,22.39
2018-08-09T00:33:38.721Z,22.30
2018-08-09T00:34:38.913Z,22.51
2018-08-09T00:35:39.078Z,22.57
2018-08-09T00:36:39.255Z,22.51
2018-08-09T00:37:39.430Z,22.51
2018-08-09T00:38:39.603Z,22.54
2018-08-09T00:39:39.783Z,22.53
2018-08-09T00:40:39.957Z,22.51
2018-08-09T00:41:40.142Z,22.54
2018-08-09T00:42:40.316Z,22.51
2018-08-09T00:43:40.497Z,22.60
2018-08-09T00:44:40.680Z,22.60
2018-08-09T00:45:40.852Z,22.57
2018-08-09T00:46:41.026Z,22.57
2018-08-09T00:47:41.202Z,22.55
2018-08-09T00:48:41.383Z,22.55
2018-08-09T00:49:41.562Z,22.48
2018-08-09T00:50:41.740Z,22.59
2018-08-09T00:51:41.922Z,22.47
2018-08-09T00:52:42.098Z,22.51
2018-08-09T00:53:42.275Z,22.43
2018-08-09T00:54:42.454Z,22.45
2018-08-09T00:55:42.631Z,22.43
2018-08-09T00:56:42.804Z,22.44
2018-08-09T00:57:42.982Z,22.39
2018-08-09T00:58:43.165Z,22.33
2018-08-09T00:59:43.342Z,22.33
2018-08-09T01:00:43.529Z,22.36
2018-08-09T01:01:43.714Z,22.30
2018-08-09T01:02:43.888Z,22.32
2018-08-09T01:03:44.070Z,22.15
2018-08-09T01:04:44.246Z,22.28
2018-08-09T01:05:44.429Z,22.33
2018-08-09T01:06:44.608Z,22.30
2018-08-09T01:07:44.790Z,22.35
2018-08-09T01:08:44.974Z,22.35
2018-08-09T01:09:45.156Z,22.29
2018-08-09T01:10:45.336Z,22.33
2018-08-09T01:11:45.517Z,22.33
2018-08-09T01:12:45.693Z,22.28
2018-08-09T01:13:45.876Z,22.20
2018-08-09T01:14:46.055Z,22.25
2018-08-09T01:15:46.239Z,22.30
2018-08-09T01:16:46.414Z,22.18
2018-08-09T01:17:46.602Z,22.23
2018-08-09T01:18:46.792Z,22.25
2018-08-09T01:19:46.963Z,22.14
2018-08-09T01:20:47.140Z,22.10
2018-08-09T01:21:47.317Z,22.17
2018-08-09T01:22:47.497Z,22.13
2018-08-09T01:23:47.694Z,22.22
2018-08-09T01:24:47.856Z,22.22
2018-08-09T01:25:48.035Z,22.25
2018-08-09T01:26:48.254Z,22.15
2018-08-09T01:27:48.390Z,22.17
2018-08-09T01:28:48.567Z,22.11
2018-08-09T01:29:48.739Z,22.10
2018-08-09T01:30:48.916Z,22.15
2018-08-09T01:31:49.095Z,22.17
2018-08-09T01:32:49.292Z,22.22
2018-08-09T01:33:49.454Z,22.15
2018-08-09T01:34:49.633Z,22.18
2018-08-09T01:35:49.816Z,22.14
2018-08-09T01:36:50.004Z,22.23
2018-08-09T01:37:50.184Z,22.18
2018-08-09T01:38:50.365Z,22.07
2018-08-09T01:39:50.547Z,22.02
2018-08-09T01:40:50.719Z,22.11
2018-08-09T01:41:50.892Z,22.13
2018-08-09T01:42:51.076Z,22.18
2018-08-09T01:43:51.261Z,22.17
2018-08-09T01:44:51.433Z,22.15
2018-08-09T01:45:51.611Z,22.14
2018-08-09T01:46:51.781Z,22.08
2018-08-09T01:47:51.958Z,22.07
2018-08-09T01:48:52.139Z,22.10
2018-08-09T01:49:52.320Z,22.10
2018-08-09T01:50:52.497Z,22.04
2018-08-09T01:51:52.670Z,22.06
2018-08-09T01:52:52.844Z,22.08
2018-08-09T01:53:53.021Z,22.02
2018-08-09T01:54:53.212Z,21.89
2018-08-09T01:55:53.393Z,22.02
2018-08-09T01:56:53.570Z,21.95
2018-08-09T01:57:53.745Z,21.99
2018-08-09T01:58:53.922Z,21.95
2018-08-09T01:59:54.098Z,21.91
2018-08-09T02:00:54.280Z,21.96
2018-08-09T02:01:54.454Z,21.93
2018-08-09T02:02:54.630Z,21.89
2018-08-09T02:03:54.811Z,21.82
2018-08-09T02:04:55.022Z,21.67
2018-08-09T02:05:55.165Z,21.62
2018-08-09T02:06:55.341Z,21.70
2018-08-09T02:07:55.511Z,21.72
2018-08-09T02:08:55.691Z,21.76
2018-08-09T02:09:55.862Z,21.77
2018-08-09T02:10:56.039Z,21.79
2018-08-09T02:11:56.217Z,21.76
2018-08-09T02:12:56.396Z,21.72
2018-08-09T02:13:56.575Z,21.70
2018-08-09T02:14:56.749Z,21.72
2018-08-09T02:15:56.931Z,21.67
2018-08-09T02:16:57.110Z,21.57
2018-08-09T02:17:57.291Z,21.57
2018-08-09T02:18:57.470Z,21.42
2018-08-09T02:19:57.649Z,21.50
2018-08-09T02:20:57.825Z,21.46
2018-08-09T02:21:57.998Z,21.45
2018-08-09T02:22:58.174Z,21.46
2018-08-09T02:23:58.356Z,21.50
2018-08-09T02:24:58.537Z,21.50
2018-08-09T02:25:58.716Z,21.51
2018-08-09T02:26:58.903Z,21.50
2018-08-09T02:27:59.079Z,21.54
2018-08-09T02:28:59.258Z,21.62
2018-08-09T02:29:59.449Z,21.64
2018-08-09T02:30:59.621Z,21.66
2018-08-09T02:31:59.802Z,21.55
2018-08-09T02:32:59.978Z,21.55
2018-08-09T02:34:00.159Z,21.46
2018-08-09T02:35:00.339Z,21.45
2018-08-09T02:36:00.513Z,21.50
2018-08-09T02:37:00.691Z,21.50
2018-08-09T02:38:00.865Z,21.54
2018-08-09T02:39:01.044Z,21.60
2018-08-09T02:40:01.227Z,21.51
2018-08-09T02:41:01.395Z,21.46
2018-08-09T02:42:01.574Z,21.43
2018-08-09T02:43:01.749Z,21.46
2018-08-09T02:44:01.922Z,21.42
2018-08-09T02:45:02.105Z,21.39
2018-08-09T02:46:02.278Z,21.50
2018-08-09T02:47:02.456Z,21.36
2018-08-09T02:48:02.631Z,21.43
2018-08-09T02:49:02.801Z,21.30
2018-08-09T02:50:02.978Z,21.35
2018-08-09T02:51:03.158Z,21.35
2018-08-09T02:52:03.336Z,21.33
2018-08-09T02:53:03.522Z,21.36
2018-08-09T02:54:03.700Z,21.33
2018-08-09T02:55:03.873Z,21.43
2018-08-09T02:56:04.064Z,21.50
2018-08-09T02:57:04.232Z,21.40
2018-08-09T02:58:04.405Z,21.36
2018-08-09T02:59:04.584Z,21.27
2018-08-09T03:00:04.756Z,21.33
2018-08-09T03:01:04.936Z,21.39
2018-08-09T03:02:05.115Z,21.45
2018-08-09T03:03:05.301Z,21.43
2018-08-09T03:04:05.483Z,21.48
2018-08-09T03:05:05.657Z,21.48
2018-08-09T03:06:05.862Z,21.43
2018-08-09T03:07:06.055Z,21.42
2018-08-09T03:08:06.230Z,21.36
2018-08-09T03:09:06.410Z,21.45
2018-08-09T03:10:06.585Z,21.43
2018-08-09T03:11:06.768Z,21.48
2018-08-09T03:12:06.941Z,21.45
2018-08-09T03:13:07.117Z,21.39
2018-08-09T03:14:07.313Z,21.39
2018-08-09T03:15:07.484Z,21.43
2018-08-09T03:16:09.510Z,21.48
2018-08-09T03:17:09.819Z,21.46
2018-08-09T03:18:12.803Z,21.46
2018-08-09T03:19:09.188Z,21.45
2018-08-09T03:20:08.408Z,21.45
2018-08-09T03:21:08.596Z,21.51
2018-08-09T03:22:08.775Z,21.51
2018-08-09T03:23:08.963Z,21.46
2018-08-09T03:24:09.139Z,21.51
2018-08-09T03:25:09.315Z,21.48
2018-08-09T03:26:09.500Z,21.46
2018-08-09T03:27:09.678Z,21.50
2018-08-09T03:28:09.856Z,21.48
2018-08-09T03:29:10.026Z,21.46
2018-08-09T03:30:10.209Z,21.43
2018-08-09T03:31:10.384Z,21.29
2018-08-09T03:32:10.575Z,21.30
2018-08-09T03:33:10.761Z,21.35
2018-08-09T03:34:10.947Z,21.29
2018-08-09T03:35:11.123Z,21.45
2018-08-09T03:36:11.297Z,21.36
2018-08-09T03:37:11.490Z,21.46
2018-08-09T03:38:11.670Z,21.37
2018-08-09T03:39:11.853Z,21.45
2018-08-09T03:40:12.038Z,21.43
2018-08-09T03:41:12.215Z,21.50
2018-08-09T03:42:12.398Z,21.45
2018-08-09T03:43:12.577Z,21.43
2018-08-09T03:44:12.751Z,21.45
2018-08-09T03:45:12.930Z,21.42
2018-08-09T03:46:13.103Z,21.42
2018-08-09T03:47:13.288Z,21.40
2018-08-09T03:48:13.461Z,21.29
2018-08-09T03:49:13.636Z,21.40
2018-08-09T03:50:16.358Z,21.50
2018-08-09T03:51:16.562Z,21.50
2018-08-09T03:52:15.499Z,21.39
2018-08-09T03:53:14.193Z,21.37
2018-08-09T03:54:14.368Z,21.52
2018-08-09T03:55:14.539Z,21.42
2018-08-09T03:56:17.753Z,21.48
2018-08-09T03:57:19.044Z,21.45
2018-08-09T03:58:15.176Z,21.37
2018-08-09T03:59:15.285Z,21.40
2018-08-09T04:00:15.459Z,21.36
2018-08-09T04:01:15.632Z,21.45
2018-08-09T04:02:16.123Z,21.36
2018-08-09T04:03:16.005Z,21.36
2018-08-09T04:04:16.189Z,21.33
2018-08-09T04:05:16.365Z,21.36
2018-08-09T04:06:16.549Z,21.35
2018-08-09T04:07:16.728Z,21.30
2018-08-09T04:08:16.906Z,21.30
2018-08-09T04:09:17.091Z,21.35
2018-08-09T04:10:17.300Z,21.30
2018-08-09T04:11:17.479Z,21.24
2018-08-09T04:12:17.659Z,21.24
2018-08-09T04:13:17.829Z,21.29
2018-08-09T04:14:18.009Z,21.27
2018-08-09T04:15:18.186Z,21.25
2018-08-09T04:16:18.367Z,21.30
2018-08-09T04:17:18.536Z,21.32
2018-08-09T04:18:18.717Z,21.18
2018-08-09T04:19:18.921Z,21.29
2018-08-09T04:20:19.099Z,21.33
2018-08-09T04:21:19.281Z,21.21
2018-08-09T04:22:19.466Z,21.24
2018-08-09T04:23:19.647Z,21.21
2018-08-09T04:24:19.831Z,21.33
2018-08-09T04:25:20.010Z,21.30
2018-08-09T04:26:20.217Z,21.25
2018-08-09T04:27:20.374Z,21.24
2018-08-09T04:28:20.543Z,21.21
2018-08-09T04:29:20.728Z,21.35
2018-08-09T04:30:21.066Z,21.32
2018-08-09T04:31:21.014Z,21.29
2018-08-09T04:32:21.220Z,21.36
2018-08-09T04:33:21.403Z,21.32
2018-08-09T04:34:21.688Z,21.33
2018-08-09T04:35:21.732Z,21.27
2018-08-09T04:36:21.984Z,21.24
2018-08-09T04:37:22.209Z,21.32
2018-08-09T04:38:22.441Z,21.35
2018-08-09T04:39:22.508Z,21.35
2018-08-09T04:40:22.679Z,21.40
2018-08-09T04:41:23.053Z,21.37
2018-08-09T04:42:23.145Z,21.40
2018-08-09T04:43:23.198Z,21.36
2018-08-09T04:44:23.436Z,21.45
2018-08-09T04:45:23.619Z,21.50
2018-08-09T04:46:23.837Z,21.45
2018-08-09T04:47:24.104Z,21.62
2018-08-09T04:48:24.166Z,21.62
2018-08-09T04:49:24.405Z,21.66
2018-08-09T04:50:24.596Z,21.62
2018-08-09T04:51:24.671Z,21.69
2018-08-09T04:52:24.859Z,21.75
2018-08-09T04:53:25.034Z,21.76
2018-08-09T04:54:25.210Z,21.85
2018-08-09T04:55:25.405Z,21.72
2018-08-09T04:56:25.596Z,21.69
2018-08-09T04:57:25.758Z,21.85
2018-08-09T04:58:25.976Z,21.95
2018-08-09T04:59:26.144Z,22.00
2018-08-09T05:00:26.317Z,21.98
2018-08-09T05:01:26.501Z,22.00
2018-08-09T05:02:26.678Z,22.02
2018-08-09T05:03:26.852Z,22.14
2018-08-09T05:04:27.031Z,22.22
2018-08-09T05:05:27.495Z,22.15
2018-08-09T05:06:27.382Z,22.25
2018-08-09T05:07:27.533Z,22.25
2018-08-09T05:08:27.719Z,22.22
2018-08-09T05:09:27.892Z,22.32
2018-08-09T05:10:28.071Z,22.44
2018-08-09T05:11:28.245Z,22.51
2018-08-09T05:12:28.416Z,22.48
2018-08-09T05:13:28.594Z,22.50
2018-08-09T05:14:28.774Z,22.53
2018-08-09T05:15:28.952Z,22.60
2018-08-09T05:16:29.205Z,22.70
2018-08-09T05:17:29.348Z,22.68
2018-08-09T05:18:29.545Z,22.78
2018-08-09T05:19:30.354Z,22.78
2018-08-09T05:20:31.033Z,22.84
2018-08-09T05:21:31.636Z,22.90
2018-08-09T05:22:31.879Z,22.93
2018-08-09T05:23:33.744Z,23.00
2018-08-09T05:24:32.279Z,23.10
2018-08-09T05:25:33.400Z,23.12
2018-08-09T05:26:30.821Z,23.12
2018-08-09T05:27:30.965Z,23.27
2018-08-09T05:28:31.141Z,23.36
2018-08-09T05:29:31.328Z,23.43
2018-08-09T05:30:31.527Z,23.54
2018-08-09T05:31:31.701Z,23.65
2018-08-09T05:32:31.897Z,23.78
2018-08-09T05:33:32.066Z,23.86
2018-08-09T05:34:32.241Z,23.98
2018-08-09T05:35:32.422Z,24.14
2018-08-09T05:36:32.607Z,24.18
2018-08-09T05:37:32.777Z,24.23
2018-08-09T05:38:32.963Z,24.29
2018-08-09T05:39:33.139Z,24.23
2018-08-09T05:40:33.318Z,24.18
2018-08-09T05:41:33.505Z,24.33
2018-08-09T05:42:33.688Z,24.45
2018-08-09T05:43:33.884Z,24.51
2018-08-09T05:44:34.511Z,24.36
2018-08-09T05:45:34.193Z,24.32
2018-08-09T05:46:34.393Z,24.33
2018-08-09T05:47:34.552Z,24.39
2018-08-09T05:48:35.814Z,24.23
2018-08-09T05:49:35.956Z,24.36
2018-08-09T05:50:38.100Z,24.21
2018-08-09T05:51:36.539Z,24.30
2018-08-09T05:52:36.582Z,24.17
2018-08-09T05:53:35.415Z,24.16
2018-08-09T05:54:35.600Z,24.26
2018-08-09T05:55:35.777Z,24.02
2018-08-09T05:56:35.955Z,24.06
2018-08-09T05:57:36.140Z,24.11
2018-08-09T05:58:36.554Z,24.06
2018-08-09T05:59:36.448Z,24.03
2018-08-09T06:00:36.620Z,24.01
2018-08-09T06:01:36.809Z,24.06
2018-08-09T06:02:36.998Z,24.05
2018-08-09T06:03:37.185Z,23.99
2018-08-09T06:04:37.359Z,24.03
2018-08-09T06:05:37.842Z,24.08
2018-08-09T06:06:37.653Z,23.96
2018-08-09T06:07:37.842Z,24.05
2018-08-09T06:08:38.038Z,24.14
2018-08-09T06:09:38.216Z,24.06
2018-08-09T06:10:40.387Z,24.13
2018-08-09T06:11:40.249Z,24.17
2018-08-09T06:12:40.664Z,24.14
2018-08-09T06:13:40.293Z,24.29
2018-08-09T06:14:40.750Z,24.33
2018-08-09T06:15:41.388Z,24.24
2018-08-09T06:16:42.778Z,24.32
2018-08-09T06:17:39.498Z,24.51
2018-08-09T06:18:39.682Z,24.53
2018-08-09T06:19:39.892Z,24.50
2018-08-09T06:20:40.082Z,24.60
2018-08-09T06:21:40.257Z,24.69
2018-08-09T06:22:40.434Z,24.81
2018-08-09T06:23:40.613Z,24.78
2018-08-09T06:24:40.788Z,24.93
2018-08-09T06:25:40.991Z,25.07
2018-08-09T06:26:41.215Z,25.04
2018-08-09T06:27:41.367Z,25.16
2018-08-09T06:28:41.589Z,25.17
2018-08-09T06:29:41.800Z,25.23
2018-08-09T06:30:41.928Z,25.28
2018-08-09T06:31:42.105Z,25.26
2018-08-09T06:32:42.285Z,25.33
2018-08-09T06:33:42.498Z,25.40
2018-08-09T06:34:42.651Z,25.48
2018-08-09T06:35:42.828Z,25.60
2018-08-09T06:36:43.003Z,25.60
2018-08-09T06:37:43.206Z,25.70
2018-08-09T06:38:43.402Z,25.78
2018-08-09T06:39:43.596Z,25.84
2018-08-09T06:40:43.802Z,25.93
2018-08-09T06:41:43.988Z,25.91
2018-08-09T06:42:44.407Z,26.05
2018-08-09T06:43:44.610Z,26.09
2018-08-09T06:44:44.475Z,26.15
2018-08-09T06:45:44.657Z,26.18
2018-08-09T06:46:44.846Z,26.37
2018-08-09T06:47:46.795Z,26.16
2018-08-09T06:48:47.760Z,26.37
2018-08-09T06:49:48.516Z,26.52
2018-08-09T06:50:46.323Z,26.55
2018-08-09T06:51:46.833Z,26.63
2018-08-09T06:52:50.322Z,26.88
2018-08-09T06:53:47.206Z,26.95
2018-08-09T06:54:47.853Z,27.10
2018-08-09T06:55:46.703Z,27.15
2018-08-09T06:56:50.379Z,27.35
2018-08-09T06:57:49.238Z,27.58
2018-08-09T06:58:48.226Z,27.74
2018-08-09T06:59:48.902Z,27.77
2018-08-09T07:00:47.372Z,27.87
2018-08-09T07:01:48.799Z,28.17
2018-08-09T07:02:51.573Z,28.27
2018-08-09T07:03:49.754Z,28.37
2018-08-09T07:04:49.849Z,28.45
2018-08-09T07:05:50.004Z,28.57
2018-08-09T07:06:49.569Z,28.56
2018-08-09T07:07:50.656Z,28.82
2018-08-09T07:08:50.746Z,28.94
2018-08-09T07:09:49.559Z,28.94
2018-08-09T07:10:49.892Z,29.27
2018-08-09T07:11:49.628Z,29.36
2018-08-09T07:12:50.000Z,29.49
2018-08-09T07:13:50.646Z,29.71
2018-08-09T07:14:50.665Z,29.60
2018-08-09T07:15:50.986Z,29.57
2018-08-09T07:16:51.877Z,29.65
2018-08-09T07:17:51.134Z,29.94
2018-08-09T07:18:50.851Z,30.24
2018-08-09T07:19:52.943Z,30.54
2018-08-09T07:20:53.273Z,30.91
2018-08-09T07:21:52.331Z,31.24
2018-08-09T07:22:53.322Z,31.52
2018-08-09T07:23:53.759Z,31.66
2018-08-09T07:24:53.817Z,32.03
2018-08-09T07:25:55.962Z,32.00
2018-08-09T07:26:56.088Z,32.36
2018-08-09T07:27:53.204Z,32.75
2018-08-09T07:28:53.036Z,32.89
2018-08-09T07:29:53.809Z,33.20
2018-08-09T07:30:53.682Z,33.49
2018-08-09T07:31:53.976Z,33.59
2018-08-09T07:32:53.756Z,33.79
2018-08-09T07:33:54.123Z,33.92
2018-08-09T07:34:54.585Z,34.03
2018-08-09T07:35:54.189Z,34.35
2018-08-09T07:36:54.156Z,34.45
2018-08-09T07:37:56.756Z,34.50
2018-08-09T07:38:54.264Z,34.74
2018-08-09T07:39:54.178Z,34.83
2018-08-09T07:40:55.507Z,34.89
2018-08-09T07:41:55.375Z,35.00
2018-08-09T07:42:54.919Z,34.96
2018-08-09T07:43:55.781Z,34.95
2018-08-09T07:44:56.356Z,34.99
2018-08-09T07:45:57.113Z,35.34
2018-08-09T07:46:54.578Z,35.41
2018-08-09T07:47:54.791Z,35.39
2018-08-09T07:48:54.957Z,35.60
2018-08-09T07:49:55.256Z,35.82
2018-08-09T07:50:55.402Z,36.17
2018-08-09T07:51:55.565Z,36.36
2018-08-09T07:52:55.755Z,36.25
2018-08-09T07:53:55.935Z,36.57
2018-08-09T07:54:56.154Z,36.86
2018-08-09T07:55:56.326Z,37.17
2018-08-09T07:56:56.548Z,37.18
2018-08-09T07:57:56.704Z,36.79
2018-08-09T07:58:56.893Z,36.93
2018-08-09T07:59:57.094Z,37.11
2018-08-09T08:00:57.331Z,37.29
2018-08-09T08:01:57.458Z,36.77
2018-08-09T08:02:57.647Z,36.73
2018-08-09T08:03:57.838Z,37.11
2018-08-09T08:04:58.029Z,37.14
2018-08-09T08:05:58.224Z,37.65
2018-08-09T08:06:58.411Z,37.83
2018-08-09T08:08:01.796Z,37.74
2018-08-09T08:09:01.579Z,37.68
2018-08-09T08:09:59.776Z,37.65
2018-08-09T08:11:00.270Z,37.84
2018-08-09T08:12:02.902Z,37.89
2018-08-09T08:13:01.054Z,37.71
2018-08-09T08:14:01.131Z,38.02
2018-08-09T08:15:02.106Z,38.17
2018-08-09T08:15:59.970Z,37.80
2018-08-09T08:17:00.155Z,38.38
2018-08-09T08:18:00.343Z,37.86
2018-08-09T08:19:00.537Z,38.23
2018-08-09T08:20:00.727Z,38.09
2018-08-09T08:21:00.924Z,37.68
2018-08-09T08:22:01.114Z,37.55
2018-08-09T08:23:01.484Z,37.15
2018-08-09T08:24:01.543Z,37.44
2018-08-09T08:25:01.744Z,37.21
2018-08-09T08:26:01.943Z,37.37
2018-08-09T08:27:02.132Z,37.42
2018-08-09T08:28:02.355Z,37.97
2018-08-09T08:29:02.588Z,38.11
2018-08-09T08:30:02.665Z,38.54
2018-08-09T08:31:02.852Z,38.57
2018-08-09T08:32:03.038Z,38.76
2018-08-09T08:33:03.229Z,38.95
2018-08-09T08:34:03.465Z,38.95
2018-08-09T08:35:03.652Z,38.46
2018-08-09T08:36:03.844Z,38.45
2018-08-09T08:37:04.035Z,38.38
2018-08-09T08:38:04.240Z,38.42
2018-08-09T08:39:04.421Z,38.74
2018-08-09T08:40:04.634Z,38.12
2018-08-09T08:41:04.823Z,38.57
2018-08-09T08:42:05.249Z,38.50
2018-08-09T08:43:05.179Z,38.84
2018-08-09T08:44:05.330Z,39.03
2018-08-09T08:45:05.516Z,39.40
2018-08-09T08:46:05.717Z,39.56
2018-08-09T08:47:05.922Z,39.71
2018-08-09T08:48:09.205Z,39.65
2018-08-09T08:49:08.213Z,39.68
2018-08-09T08:50:06.373Z,39.94
2018-08-09T08:51:06.561Z,39.72
2018-08-09T08:52:06.753Z,39.53
2018-08-09T08:53:06.983Z,39.44
2018-08-09T08:54:07.129Z,39.24
2018-08-09T08:55:07.759Z,38.76
2018-08-09T08:56:08.293Z,38.46
2018-08-09T08:57:09.522Z,38.42
2018-08-09T08:58:10.353Z,38.48
2018-08-09T08:59:09.960Z,38.82
2018-08-09T09:00:10.031Z,38.91
2018-08-09T09:01:08.899Z,39.41
2018-08-09T09:02:08.247Z,39.43
2018-08-09T09:03:08.452Z,39.56
2018-08-09T09:04:11.363Z,39.40
2018-08-09T09:05:12.353Z,39.41
2018-08-09T09:06:11.989Z,39.93
2018-08-09T09:07:10.005Z,40.31
2018-08-09T09:08:10.762Z,40.68
2018-08-09T09:09:10.774Z,40.63
2018-08-09T09:10:10.793Z,40.20
2018-08-09T09:11:12.097Z,40.24
2018-08-09T09:12:12.650Z,40.58
2018-08-09T09:13:11.995Z,40.05
2018-08-09T09:14:11.573Z,40.05
2018-08-09T09:15:12.266Z,40.21
2018-08-09T09:16:13.455Z,39.74
2018-08-09T09:17:13.002Z,39.41
2018-08-09T09:18:13.070Z,39.25
2018-08-09T09:19:13.477Z,39.49
2018-08-09T09:20:13.969Z,39.74
2018-08-09T09:21:13.821Z,40.15
2018-08-09T09:22:14.709Z,40.59
2018-08-09T09:23:14.077Z,40.38
2018-08-09T09:24:13.907Z,40.61
2018-08-09T09:25:15.894Z,40.78
2018-08-09T09:26:14.374Z,41.15
2018-08-09T09:27:35.365Z,41.37
2018-08-09T09:28:14.033Z,41.78
2018-08-09T09:29:15.877Z,41.99
2018-08-09T09:30:16.275Z,42.02
2018-08-09T09:31:15.440Z,42.10
2018-08-09T09:32:16.508Z,42.51
2018-08-09T09:33:15.456Z,42.81
2018-08-09T09:34:15.531Z,43.06
2018-08-09T09:35:18.138Z,43.08
2018-08-09T09:36:16.271Z,43.27
2018-08-09T09:37:16.249Z,43.35
2018-08-09T09:38:16.409Z,43.39
2018-08-09T09:39:16.196Z,43.38
2018-08-09T09:40:16.590Z,43.58
2018-08-09T09:41:17.675Z,43.72
2018-08-09T09:42:17.538Z,43.73
2018-08-09T09:43:20.011Z,43.91
2018-08-09T09:44:18.530Z,44.10
2018-08-09T09:45:18.218Z,43.60
2018-08-09T09:46:18.849Z,43.86
2018-08-09T09:47:18.093Z,43.77
2018-08-09T09:48:18.418Z,43.62
2018-08-09T09:49:19.244Z,44.02
2018-08-09T09:50:18.267Z,44.05
2018-08-09T09:51:19.118Z,43.94
2018-08-09T09:52:21.276Z,43.28
2018-08-09T09:53:20.146Z,42.53
2018-08-09T09:54:20.148Z,41.43
2018-08-09T09:55:18.809Z,40.65
2018-08-09T09:56:20.658Z,40.21
2018-08-09T09:57:20.085Z,40.21
2018-08-09T09:58:21.982Z,39.71
2018-08-09T09:59:19.065Z,39.52
2018-08-09T10:00:20.252Z,38.95
2018-08-09T10:01:21.420Z,38.08
2018-08-09T10:02:20.616Z,38.09
2018-08-09T10:03:21.320Z,37.84
2018-08-09T10:04:21.130Z,37.55
2018-08-09T10:05:21.002Z,37.53
2018-08-09T10:06:21.316Z,37.49
2018-08-09T10:07:21.980Z,37.82
2018-08-09T10:08:25.194Z,39.02
2018-08-09T10:09:21.719Z,39.24
2018-08-09T10:10:21.371Z,39.17
2018-08-09T10:11:22.702Z,38.95
2018-08-09T10:12:23.863Z,38.84
2018-08-09T10:13:23.431Z,39.02
2018-08-09T10:14:22.660Z,39.15
2018-08-09T10:15:23.408Z,38.38
2018-08-09T10:16:23.041Z,38.74
2018-08-09T10:17:25.336Z,39.44
2018-08-09T10:18:26.775Z,39.24
2018-08-09T10:19:22.755Z,39.63
2018-08-09T10:20:23.398Z,40.54
2018-08-09T10:21:24.980Z,40.84
2018-08-09T10:22:26.617Z,41.19
2018-08-09T10:23:23.533Z,41.95
2018-08-09T10:24:25.959Z,42.53
2018-08-09T10:25:26.023Z,43.06
2018-08-09T10:26:27.620Z,43.42
2018-08-09T10:27:27.441Z,43.16
2018-08-09T10:28:25.948Z,42.51
2018-08-09T10:29:25.415Z,42.39
2018-08-09T10:30:26.104Z,43.07
2018-08-09T10:31:25.444Z,42.66
2018-08-09T10:32:26.935Z,43.13
2018-08-09T10:33:28.170Z,43.45
2018-08-09T10:34:28.611Z,43.64
2018-08-09T10:35:28.736Z,43.99
2018-08-09T10:36:26.844Z,44.36
2018-08-09T10:37:25.973Z,44.81
2018-08-09T10:38:26.871Z,45.00
2018-08-09T10:39:27.421Z,45.34
2018-08-09T10:40:28.328Z,45.18
2018-08-09T10:41:27.510Z,44.76
2018-08-09T10:42:26.601Z,44.22
2018-08-09T10:43:28.275Z,43.83
2018-08-09T10:44:27.737Z,43.91
2018-08-09T10:45:27.655Z,43.33
2018-08-09T10:46:27.397Z,42.82
2018-08-09T10:47:28.769Z,42.14
2018-08-09T10:48:28.292Z,41.07
2018-08-09T10:49:28.467Z,39.77
2018-08-09T10:50:30.363Z,39.43
2018-08-09T10:51:28.818Z,39.43
2018-08-09T10:52:29.411Z,40.23
2018-08-09T10:53:29.033Z,41.38
2018-08-09T10:54:29.456Z,42.26
2018-08-09T10:55:29.403Z,42.63
2018-08-09T10:56:31.959Z,41.68
2018-08-09T10:57:32.319Z,41.87
2018-08-09T10:58:29.000Z,42.21
2018-08-09T10:59:30.275Z,43.00
2018-08-09T11:00:29.707Z,43.38
2018-08-09T11:01:29.887Z,43.89
2018-08-09T11:02:30.021Z,44.42
2018-08-09T11:03:30.430Z,43.87
2018-08-09T11:04:31.372Z,44.15
2018-08-09T11:05:30.489Z,43.62
2018-08-09T11:06:30.328Z,43.49
2018-08-09T11:07:30.643Z,43.42
2018-08-09T11:08:30.540Z,43.67
2018-08-09T11:09:30.720Z,43.69
2018-08-09T11:10:31.394Z,43.72
2018-08-09T11:11:31.238Z,44.26
2018-08-09T11:12:31.667Z,43.64
2018-08-09T11:13:31.807Z,43.79
2018-08-09T11:14:31.672Z,43.69
2018-08-09T11:15:32.457Z,43.49
2018-08-09T11:16:32.061Z,44.24
2018-08-09T11:17:32.635Z,44.36
2018-08-09T11:18:32.715Z,44.64
2018-08-09T11:19:33.054Z,44.55
2018-08-09T11:20:33.349Z,44.64
2018-08-09T11:21:33.500Z,44.59
2018-08-09T11:22:33.652Z,44.03
2018-08-09T11:23:33.585Z,43.35
2018-08-09T11:24:35.768Z,42.92
2018-08-09T11:25:34.477Z,43.48
2018-08-09T11:26:34.424Z,43.13
2018-08-09T11:27:34.466Z,43.41
2018-08-09T11:28:34.907Z,42.41
2018-08-09T11:29:35.034Z,41.45
2018-08-09T11:30:35.561Z,40.82
2018-08-09T11:31:35.281Z,40.38
2018-08-09T11:32:35.368Z,39.94
2018-08-09T11:33:36.137Z,40.43
2018-08-09T11:34:35.827Z,41.36
2018-08-09T11:35:35.950Z,41.82
2018-08-09T11:36:35.847Z,42.28
2018-08-09T11:37:37.303Z,42.35
2018-08-09T11:38:36.949Z,42.60
2018-08-09T11:39:37.318Z,42.65
2018-08-09T11:40:38.212Z,42.63
2018-08-09T11:41:37.669Z,42.04
2018-08-09T11:42:37.713Z,41.03
2018-08-09T11:43:38.251Z,40.59
2018-08-09T11:44:37.803Z,40.85
2018-08-09T11:45:40.219Z,41.00
2018-08-09T11:46:38.288Z,41.12
2018-08-09T11:47:39.416Z,41.31
2018-08-09T11:48:39.005Z,40.73
2018-08-09T11:49:39.314Z,40.61
2018-08-09T11:50:39.323Z,40.66
2018-08-09T11:51:40.933Z,40.23
2018-08-09T11:52:42.218Z,40.15
2018-08-09T11:53:39.511Z,39.87
2018-08-09T11:54:39.448Z,39.86
2018-08-09T11:55:40.057Z,39.77
2018-08-09T11:56:40.243Z,39.33
2018-08-09T11:57:39.912Z,39.02
2018-08-09T11:58:40.832Z,38.68
2018-08-09T11:59:41.747Z,38.73
2018-08-09T12:00:40.286Z,38.46
2018-08-09T12:01:41.079Z,38.28
2018-08-09T12:02:41.342Z,38.52
2018-08-09T12:03:40.776Z,38.62
2018-08-09T12:04:41.480Z,38.55
2018-08-09T12:05:42.826Z,38.61
2018-08-09T12:06:41.787Z,38.61
2018-08-09T12:07:42.388Z,38.76
2018-08-09T12:08:42.211Z,38.76
2018-08-09T12:09:43.342Z,38.52
2018-08-09T12:10:42.840Z,38.24
2018-08-09T12:11:42.331Z,38.30
2018-08-09T12:12:43.481Z,38.19
2018-08-09T12:13:43.200Z,38.14
2018-08-09T12:14:42.692Z,38.09
2018-08-09T12:15:43.669Z,38.21
2018-08-09T12:16:43.406Z,38.34
2018-08-09T12:17:45.836Z,37.83
2018-08-09T12:18:43.909Z,37.07
2018-08-09T12:19:44.482Z,36.98
2018-08-09T12:20:47.414Z,36.88
2018-08-09T12:21:44.510Z,37.18
2018-08-09T12:22:45.867Z,37.21
2018-08-09T12:23:43.997Z,37.14
2018-08-09T12:24:44.899Z,37.10
2018-08-09T12:25:45.724Z,37.03
2018-08-09T12:26:44.363Z,37.08
2018-08-09T12:27:44.610Z,37.07
2018-08-09T12:28:45.041Z,37.21
2018-08-09T12:29:44.933Z,37.15
2018-08-09T12:30:44.973Z,37.28
2018-08-09T12:31:45.260Z,37.32
2018-08-09T12:32:45.141Z,37.30
2018-08-09T12:33:45.312Z,37.30
2018-08-09T12:34:45.507Z,37.21
2018-08-09T12:35:45.698Z,37.37
2018-08-09T12:36:45.926Z,37.15
2018-08-09T12:37:46.420Z,37.13
2018-08-09T12:38:46.674Z,37.20
2018-08-09T12:39:47.124Z,37.17
2018-08-09T12:40:46.810Z,37.14
2018-08-09T12:41:47.217Z,36.99
2018-08-09T12:42:47.020Z,36.92
2018-08-09T12:43:47.247Z,36.80
2018-08-09T12:44:47.430Z,36.83
2018-08-09T12:45:47.621Z,36.76
2018-08-09T12:46:48.006Z,36.77
2018-08-09T12:47:50.011Z,36.74
2018-08-09T12:48:48.780Z,36.57
2018-08-09T12:49:48.326Z,36.31
2018-08-09T12:50:48.607Z,36.23
2018-08-09T12:51:49.278Z,36.27
2018-08-09T12:52:48.953Z,35.89
2018-08-09T12:53:49.324Z,35.89
2018-08-09T12:54:49.368Z,35.88